Time;durP1;ratioP1;P1;durP2;ratioP2;P2;SDS_P1;SDS_P2;PMS_P1;PMS_P2;Temp;Humidity;BMP_temperature;BMP_pressure;BME280_temperature;BME280_humidity;BME280_pressure;Samples;Min_cycle;Max_cycle;Signal;HPM_P1;HPM_P2
2023/09/24 00:01:13;;;;;;;0.10;0.10;;;;;;;;;;4823533;29;20042;-83
2023/09/24 00:03:39;;;;;;;0.10;0.10;;;;;;;;;;4823603;29;20052;-83
2023/09/24 00:06:07;;;;;;;0.10;0.10;;;;;;;;;;4824749;29;20067;-83
2023/09/24 00:08:33;;;;;;;0.10;0.10;;;;;;;;;;4808789;29;20061;-83
2023/09/24 00:10:59;;;;;;;0.10;0.10;;;;;;;;;;4824458;29;20058;-83
2023/09/24 00:13:25;;;;;;;0.10;0.10;;;;;;;;;;4823215;29;20054;-83
2023/09/24 00:15:52;;;;;;;0.10;0.10;;;;;;;;;;4823405;29;20156;-83
2023/09/24 00:18:18;;;;;;;0.10;0.10;;;;;;;;;;4823323;29;20238;-84
2023/09/24 00:20:44;;;;;;;0.10;0.10;;;;;;;;;;4808165;29;20522;-83
2023/09/24 00:23:11;;;;;;;0.10;0.10;;;;;;;;;;4808376;29;20397;-83
2023/09/24 00:25:37;;;;;;;0.10;0.10;;;;;;;;;;4807789;29;20052;-83
2023/09/24 00:28:03;;;;;;;0.10;0.10;;;;;;;;;;4823049;29;20062;-84
2023/09/24 00:30:31;;;;;;;0.10;0.10;;;;;;;;;;4823277;29;20054;-83
2023/09/24 00:32:58;;;;;;;0.10;0.10;;;;;;;;;;4823124;29;20438;-83
2023/09/24 00:35:24;;;;;;;0.10;0.10;;;;;;;;;;4823040;29;20130;-84
2023/09/24 00:37:49;;;;;;;0.10;0.10;;;;;;;;;;4824119;29;20121;-83
2023/09/24 00:40:15;;;;;;;0.10;0.10;;;;;;;;;;4822836;29;20057;-84
2023/09/24 00:42:41;;;;;;;0.10;0.10;;;;;;;;;;4822850;29;20056;-84
2023/09/24 00:45:10;;;;;;;0.10;0.10;;;;;;;;;;4824092;29;20046;-83
2023/09/24 00:47:37;;;;;;;0.10;0.10;;;;;;;;;;4822807;29;20054;-83
2023/09/24 00:50:04;;;;;;;0.20;0.20;;;;;;;;;;4822554;29;20057;-83
2023/09/24 00:52:30;;;;;;;0.10;0.10;;;;;;;;;;4822361;29;20053;-83
2023/09/24 00:54:56;;;;;;;0.10;0.10;;;;;;;;;;4822970;29;20038;-84
2023/09/24 00:57:23;;;;;;;0.10;0.10;;;;;;;;;;4823116;29;20042;-83
2023/09/24 00:59:49;;;;;;;0.10;0.10;;;;;;;;;;4823041;29;20114;-83
2023/09/24 01:02:16;;;;;;;0.10;0.10;;;;;;;;;;4822550;29;20114;-83
2023/09/24 01:04:42;;;;;;;0.10;0.10;;;;;;;;;;4822666;29;20054;-84
2023/09/24 01:07:08;;;;;;;0.10;0.10;;;;;;;;;;4822524;29;20053;-82
2023/09/24 01:09:34;;;;;;;0.10;0.10;;;;;;;;;;4822750;29;20050;-83
2023/09/24 01:12:03;;;;;;;0.10;0.10;;;;;;;;;;4822623;29;20050;-83
2023/09/24 01:14:30;;;;;;;0.10;0.10;;;;;;;;;;4822555;29;20039;-83
2023/09/24 01:16:55;;;;;;;0.10;0.10;;;;;;;;;;4822509;29;20053;-83
2023/09/24 01:19:23;;;;;;;0.10;0.10;;;;;;;;;;4822693;29;20051;-83
2023/09/24 01:21:50;;;;;;;0.10;0.10;;;;;;;;;;4823491;29;20042;-83
2023/09/24 01:24:16;;;;;;;0.10;0.10;;;;;;;;;;4822580;29;20043;-84
2023/09/24 01:26:44;;;;;;;0.10;0.10;;;;;;;;;;4807008;29;20129;-83
2023/09/24 01:29:11;;;;;;;0.10;0.10;;;;;;;;;;4822556;29;20555;-83
2023/09/24 01:31:38;;;;;;;0.10;0.10;;;;;;;;;;4822261;29;20095;-83
2023/09/24 01:34:05;;;;;;;0.10;0.10;;;;;;;;;;4823443;29;20054;-83
2023/09/24 01:36:32;;;;;;;0.10;0.10;;;;;;;;;;4823370;29;20058;-83
2023/09/24 01:38:58;;;;;;;0.10;0.10;;;;;;;;;;4823709;29;20042;-83
2023/09/24 01:41:25;;;;;;;0.10;0.10;;;;;;;;;;4822310;29;20496;-84
2023/09/24 01:43:52;;;;;;;0.10;0.10;;;;;;;;;;4822109;29;20092;-83
2023/09/24 01:46:20;;;;;;;0.10;0.10;;;;;;;;;;4806933;29;20088;-83
2023/09/24 01:48:54;;;;;;;0.10;0.10;;;;;;;;;;4823274;29;20101;-84
2023/09/24 01:51:21;;;;;;;0.10;0.10;;;;;;;;;;4822143;29;20530;-83
2023/09/24 01:53:48;;;;;;;0.10;0.10;;;;;;;;;;4821849;29;20054;-84
2023/09/24 01:56:17;;;;;;;0.10;0.10;;;;;;;;;;4822014;29;20475;-84
2023/09/24 01:58:43;;;;;;;0.10;0.10;;;;;;;;;;4822595;29;20104;-83
2023/09/24 02:01:09;;;;;;;0.10;0.10;;;;;;;;;;4806894;29;20046;-84
2023/09/24 02:03:35;;;;;;;0.10;0.10;;;;;;;;;;4823653;29;20050;-83
2023/09/24 02:06:02;;;;;;;0.10;0.10;;;;;;;;;;4825447;29;20055;-83
2023/09/24 02:08:30;;;;;;;0.10;0.10;;;;;;;;;;4825527;29;20062;-83
2023/09/24 02:10:57;;;;;;;0.10;0.10;;;;;;;;;;4825672;29;20058;-84
2023/09/24 02:13:23;;;;;;;0.10;0.10;;;;;;;;;;4825389;29;20078;-83
2023/09/24 02:15:49;;;;;;;0.10;0.10;;;;;;;;;;4826426;29;20460;-83
2023/09/24 02:18:19;;;;;;;0.15;0.15;;;;;;;;;;4826345;29;20050;-83
2023/09/24 02:20:48;;;;;;;0.10;0.10;;;;;;;;;;4810194;29;20046;-83
2023/09/24 02:23:15;;;;;;;0.10;0.10;;;;;;;;;;4810085;29;20042;-83
2023/09/24 02:25:41;;;;;;;0.10;0.10;;;;;;;;;;4826155;29;20077;-83
2023/09/24 02:28:07;;;;;;;0.10;0.10;;;;;;;;;;4825243;29;20054;-84
2023/09/24 02:30:34;;;;;;;0.10;0.10;;;;;;;;;;4824908;29;20107;-83
2023/09/24 02:33:01;;;;;;;0.10;0.10;;;;;;;;;;4826431;29;20061;-84
2023/09/24 02:35:27;;;;;;;0.10;0.10;;;;;;;;;;4809966;29;20089;-84
2023/09/24 02:37:53;;;;;;;0.10;0.10;;;;;;;;;;4809792;29;20070;-83
2023/09/24 02:40:28;;;;;;;0.10;0.10;;;;;;;;;;4826067;29;20398;-84
2023/09/24 02:43:01;;;;;;;0.10;0.10;;;;;;;;;;4824778;29;20111;-83
2023/09/24 02:45:27;;;;;;;0.10;0.10;;;;;;;;;;4824631;29;20141;-84
2023/09/24 02:47:53;;;;;;;0.10;0.10;;;;;;;;;;4825004;29;20083;-83
2023/09/24 02:50:22;;;;;;;0.10;0.10;;;;;;;;;;4825782;29;20046;-83
2023/09/24 02:52:48;;;;;;;0.10;0.10;;;;;;;;;;4824690;29;20050;-83
2023/09/24 02:55:15;;;;;;;0.10;0.10;;;;;;;;;;4824578;29;20050;-83
2023/09/24 02:57:41;;;;;;;0.10;0.10;;;;;;;;;;4809571;29;20106;-84
2023/09/24 03:00:12;;;;;;;0.10;0.10;;;;;;;;;;4824533;29;20046;-84
2023/09/24 03:02:38;;;;;;;0.10;0.10;;;;;;;;;;4824752;29;20058;-83
2023/09/24 03:05:06;;;;;;;0.10;0.10;;;;;;;;;;4824712;29;20061;-83
2023/09/24 03:07:32;;;;;;;0.10;0.10;;;;;;;;;;4825756;29;20049;-83
2023/09/24 03:09:58;;;;;;;0.10;0.10;;;;;;;;;;4824348;29;20046;-83
2023/09/24 03:12:24;;;;;;;0.10;0.10;;;;;;;;;;4824255;29;20058;-83
2023/09/24 03:14:50;;;;;;;0.10;0.10;;;;;;;;;;4825194;29;20047;-83
2023/09/24 03:17:16;;;;;;;0.10;0.10;;;;;;;;;;4824530;29;20174;-83
2023/09/24 03:19:42;;;;;;;0.10;0.10;;;;;;;;;;4824162;29;20126;-83
2023/09/24 03:22:08;;;;;;;0.10;0.10;;;;;;;;;;4824202;29;20053;-83
2023/09/24 03:24:34;;;;;;;0.10;0.10;;;;;;;;;;4809339;29;20131;-83
2023/09/24 03:27:00;;;;;;;0.10;0.10;;;;;;;;;;4808993;29;20066;-84
2023/09/24 03:29:25;;;;;;;0.10;0.10;;;;;;;;;;4809012;29;20058;-84
2023/09/24 03:31:51;;;;;;;0.10;0.10;;;;;;;;;;4824090;29;20091;-83
2023/09/24 03:34:17;;;;;;;0.10;0.10;;;;;;;;;;4823859;29;20506;-83
2023/09/24 03:36:44;;;;;;;0.10;0.10;;;;;;;;;;4823859;29;20042;-83
2023/09/24 03:39:10;;;;;;;0.10;0.10;;;;;;;;;;4823802;29;20078;-83
2023/09/24 03:41:35;;;;;;;0.10;0.10;;;;;;;;;;4824198;29;20105;-83
2023/09/24 03:44:02;;;;;;;0.10;0.10;;;;;;;;;;4809219;29;20042;-83
2023/09/24 03:46:28;;;;;;;0.10;0.10;;;;;;;;;;4823898;29;20119;-83
2023/09/24 03:48:54;;;;;;;0.10;0.10;;;;;;;;;;4823993;29;20039;-83
2023/09/24 03:51:20;;;;;;;0.10;0.10;;;;;;;;;;4823829;29;20038;-83
2023/09/24 03:53:46;;;;;;;0.10;0.10;;;;;;;;;;4823494;29;20056;-83
2023/09/24 03:56:11;;;;;;;0.10;0.10;;;;;;;;;;4808446;29;20053;-83
2023/09/24 03:58:37;;;;;;;0.10;0.10;;;;;;;;;;4823693;29;20046;-83
2023/09/24 04:01:10;;;;;;;0.10;0.10;;;;;;;;;;4823699;29;20038;-83
2023/09/24 04:03:37;;;;;;;0.10;0.10;;;;;;;;;;4823580;29;20046;-83
2023/09/24 04:06:12;;;;;;;0.10;0.10;;;;;;;;;;4823717;29;20046;-83
2023/09/24 04:08:38;;;;;;;0.10;0.10;;;;;;;;;;4823595;29;20061;-83
2023/09/24 04:11:06;;;;;;;0.10;0.10;;;;;;;;;;4823564;29;20061;-84
2023/09/24 04:13:33;;;;;;;0.10;0.10;;;;;;;;;;4823475;29;20487;-84
2023/09/24 04:16:12;;;;;;;0.10;0.10;;;;;;;;;;4808405;29;20050;-84
2023/09/24 04:18:38;;;;;;;0.10;0.10;;;;;;;;;;4824718;29;20372;-84
2023/09/24 04:21:10;;;;;;;0.20;0.20;;;;;;;;;;4823367;29;20046;-84
2023/09/24 04:23:36;;;;;;;0.20;0.20;;;;;;;;;;4808284;29;20054;-84
2023/09/24 04:26:02;;;;;;;0.10;0.10;;;;;;;;;;4807486;29;20066;-84
2023/09/24 04:28:28;;;;;;;0.10;0.10;;;;;;;;;;4823329;29;20054;-84
2023/09/24 04:30:56;;;;;;;0.10;0.10;;;;;;;;;;4808288;29;20074;-83
2023/09/24 04:33:22;;;;;;;0.10;0.10;;;;;;;;;;4808077;29;20078;-84
2023/09/24 04:35:48;;;;;;;0.10;0.10;;;;;;;;;;4823221;29;20444;-83
2023/09/24 04:38:16;;;;;;;0.10;0.10;;;;;;;;;;4823017;29;20050;-83
2023/09/24 04:40:42;;;;;;;0.10;0.10;;;;;;;;;;4823228;29;20054;-83
2023/09/24 04:43:10;;;;;;;0.10;0.10;;;;;;;;;;4807889;29;20487;-83
2023/09/24 04:45:36;;;;;;;0.10;0.10;;;;;;;;;;4823100;29;20050;-83
2023/09/24 04:48:02;;;;;;;0.10;0.10;;;;;;;;;;4822854;29;20065;-84
2023/09/24 04:50:28;;;;;;;0.10;0.10;;;;;;;;;;4822837;29;20058;-83
2023/09/24 04:52:55;;;;;;;0.10;0.10;;;;;;;;;;4822730;29;20046;-83
2023/09/24 04:55:21;;;;;;;0.10;0.10;;;;;;;;;;4824049;29;20054;-83
2023/09/24 04:57:46;;;;;;;0.10;0.10;;;;;;;;;;4822692;29;20050;-84
2023/09/24 05:00:14;;;;;;;0.10;0.10;;;;;;;;;;4822941;29;20050;-83
2023/09/24 05:02:40;;;;;;;0.10;0.10;;;;;;;;;;4823071;29;20049;-84
2023/09/24 05:05:07;;;;;;;0.10;0.10;;;;;;;;;;4822853;29;20051;-83
2023/09/24 05:07:33;;;;;;;0.10;0.10;;;;;;;;;;4807695;29;20129;-84
2023/09/24 05:09:59;;;;;;;0.10;0.10;;;;;;;;;;4807530;29;20130;-84
2023/09/24 05:12:25;;;;;;;0.10;0.10;;;;;;;;;;4822421;29;20562;-83
2023/09/24 05:14:52;;;;;;;0.10;0.10;;;;;;;;;;4807173;29;20047;-84
2023/09/24 05:17:18;;;;;;;0.10;0.10;;;;;;;;;;4807087;29;20098;-83
2023/09/24 05:19:44;;;;;;;0.10;0.10;;;;;;;;;;4823650;29;20050;-84
2023/09/24 05:22:09;;;;;;;0.35;0.35;;;;;;;;;;4807375;29;20058;-83
2023/09/24 05:24:36;;;;;;;0.10;0.10;;;;;;;;;;4822513;29;20058;-84
2023/09/24 05:27:02;;;;;;;0.10;0.10;;;;;;;;;;4806920;29;20522;-84
2023/09/24 05:29:28;;;;;;;0.20;0.20;;;;;;;;;;4822322;29;20050;-83
2023/09/24 05:31:54;;;;;;;0.10;0.10;;;;;;;;;;4822401;29;20049;-84
2023/09/24 05:34:20;;;;;;;0.10;0.10;;;;;;;;;;4823333;29;20499;-83
2023/09/24 05:36:46;;;;;;;0.10;0.10;;;;;;;;;;4822310;29;20050;-83
2023/09/24 05:39:12;;;;;;;0.10;0.10;;;;;;;;;;4822547;29;20042;-84
2023/09/24 05:41:38;;;;;;;0.10;0.10;;;;;;;;;;4822232;29;20098;-83
2023/09/24 05:44:05;;;;;;;0.20;0.20;;;;;;;;;;4822368;29;20177;-83
2023/09/24 05:46:31;;;;;;;0.10;0.10;;;;;;;;;;4822031;29;20133;-83
2023/09/24 05:48:59;;;;;;;0.10;0.10;;;;;;;;;;4822101;29;20127;-84
2023/09/24 05:51:25;;;;;;;0.10;0.10;;;;;;;;;;4807242;29;20145;-84
2023/09/24 05:53:52;;;;;;;0.10;0.10;;;;;;;;;;4821937;29;20133;-83
2023/09/24 05:56:18;;;;;;;0.10;0.10;;;;;;;;;;4822060;29;20049;-84
2023/09/24 05:58:44;;;;;;;0.13;0.13;;;;;;;;;;4806974;29;20050;-84
2023/09/24 06:01:17;;;;;;;0.10;0.10;;;;;;;;;;4823550;29;20498;-83
2023/09/24 06:03:43;;;;;;;0.10;0.10;;;;;;;;;;4806952;29;20058;-84
2023/09/24 06:06:12;;;;;;;0.10;0.10;;;;;;;;;;4821923;29;20487;-83
2023/09/24 06:08:38;;;;;;;0.10;0.10;;;;;;;;;;4823237;29;20061;-84
2023/09/24 06:11:04;;;;;;;0.10;0.10;;;;;;;;;;4807007;29;20061;-84
2023/09/24 06:13:30;;;;;;;0.10;0.10;;;;;;;;;;4821678;29;20395;-84
2023/09/24 06:15:59;;;;;;;0.10;0.10;;;;;;;;;;4821869;29;20071;-84
2023/09/24 06:18:25;;;;;;;0.10;0.10;;;;;;;;;;4821763;29;20498;-85
2023/09/24 06:20:51;;;;;;;0.20;0.20;;;;;;;;;;4821898;29;20047;-86
2023/09/24 06:23:17;;;;;;;0.10;0.10;;;;;;;;;;4821831;29;20054;-85
2023/09/24 06:25:43;;;;;;;0.22;0.20;;;;;;;;;;4821525;29;20053;-86
2023/09/24 06:28:09;;;;;;;0.10;0.10;;;;;;;;;;4821701;29;20058;-88
2023/09/24 06:30:38;;;;;;;0.10;0.10;;;;;;;;;;4821632;29;20058;-84
2023/09/24 06:33:05;;;;;;;0.10;0.10;;;;;;;;;;4806608;29;20499;-86
2023/09/24 06:35:31;;;;;;;0.20;0.20;;;;;;;;;;4821828;29;20065;-87
2023/09/24 06:37:57;;;;;;;0.10;0.10;;;;;;;;;;4806561;29;20054;-89
2023/09/24 06:40:23;;;;;;;0.20;0.20;;;;;;;;;;4806455;29;20050;-88
2023/09/24 06:42:49;;;;;;;0.10;0.10;;;;;;;;;;4807007;29;20066;-89
2023/09/24 06:45:15;;;;;;;0.10;0.10;;;;;;;;;;4821705;29;20062;-90
2023/09/24 06:47:41;;;;;;;0.10;0.10;;;;;;;;;;4806412;29;20053;-87
2023/09/24 06:50:08;;;;;;;0.10;0.10;;;;;;;;;;4823867;29;20050;-86
2023/09/24 06:52:34;;;;;;;0.10;0.10;;;;;;;;;;4824823;29;20091;-86
2023/09/24 06:55:00;;;;;;;0.10;0.10;;;;;;;;;;4809833;29;20042;-86
2023/09/24 06:57:26;;;;;;;0.10;0.10;;;;;;;;;;4809530;29;20038;-86
2023/09/24 06:59:53;;;;;;;0.10;0.10;;;;;;;;;;4824570;29;20121;-86
2023/09/24 07:02:18;;;;;;;0.10;0.10;;;;;;;;;;4809744;29;20049;-86
2023/09/24 07:04:45;;;;;;;0.10;0.10;;;;;;;;;;4824665;29;20042;-86
2023/09/24 07:07:11;;;;;;;0.10;0.10;;;;;;;;;;4824441;29;20552;-87
2023/09/24 07:09:37;;;;;;;0.20;0.20;;;;;;;;;;4809475;29;20043;-87
2023/09/24 07:12:04;;;;;;;0.10;0.10;;;;;;;;;;4809249;29;20057;-87
2023/09/24 07:14:30;;;;;;;0.10;0.10;;;;;;;;;;4824284;29;20053;-87
2023/09/24 07:16:56;;;;;;;0.10;0.10;;;;;;;;;;4824088;29;20046;-88
2023/09/24 07:19:22;;;;;;;0.10;0.10;;;;;;;;;;4809413;29;20046;-88
2023/09/24 07:21:48;;;;;;;0.10;0.10;;;;;;;;;;4809282;29;20126;-87
2023/09/24 07:24:14;;;;;;;0.10;0.10;;;;;;;;;;4825186;29;20054;-88
2023/09/24 07:26:44;;;;;;;0.30;0.30;;;;;;;;;;4825099;29;20065;-87
2023/09/24 07:29:10;;;;;;;0.20;0.20;;;;;;;;;;4824017;29;20057;-87
2023/09/24 07:31:36;;;;;;;0.10;0.10;;;;;;;;;;4808952;29;20495;-87
2023/09/24 07:34:02;;;;;;;0.10;0.10;;;;;;;;;;4808522;29;20054;-87
2023/09/24 07:36:29;;;;;;;0.10;0.10;;;;;;;;;;4823731;29;20054;-86
2023/09/24 07:38:54;;;;;;;0.10;0.10;;;;;;;;;;4808772;29;20078;-88
2023/09/24 07:41:21;;;;;;;0.10;0.10;;;;;;;;;;4808882;29;20074;-88
2023/09/24 07:43:47;;;;;;;0.10;0.10;;;;;;;;;;4823936;29;20506;-88
2023/09/24 07:46:14;;;;;;;0.15;0.15;;;;;;;;;;4823957;29;20046;-88
2023/09/24 07:48:41;;;;;;;0.10;0.10;;;;;;;;;;4808943;29;20091;-88
2023/09/24 07:51:07;;;;;;;0.10;0.10;;;;;;;;;;4823675;29;20042;-87
2023/09/24 07:53:33;;;;;;;0.10;0.10;;;;;;;;;;4825705;29;20046;-88
2023/09/24 07:56:02;;;;;;;0.10;0.10;;;;;;;;;;4839224;29;20254;-88
2023/09/24 07:58:30;;;;;;;0.20;0.20;;;;;;;;;;4825033;29;20046;-87
2023/09/24 08:00:57;;;;;;;0.20;0.20;;;;;;;;;;4822771;29;20126;-85
2023/09/24 08:03:23;;;;;;;0.20;0.20;;;;;;;;;;4823555;29;20050;-87
2023/09/24 08:05:49;;;;;;;0.30;0.30;;;;;;;;;;4839073;29;20058;-88
2023/09/24 08:08:15;;;;;;;0.10;0.10;;;;;;;;;;4809079;29;20575;-87
2023/09/24 08:10:43;;;;;;;0.15;0.15;;;;;;;;;;4808479;29;20491;-87
2023/09/24 08:13:09;;;;;;;0.20;0.20;;;;;;;;;;4823366;29;20076;-88
2023/09/24 08:15:35;;;;;;;0.15;0.15;;;;;;;;;;4838615;29;20050;-86
2023/09/24 08:18:01;;;;;;;0.52;0.50;;;;;;;;;;4838878;29;20110;-86
2023/09/24 08:20:27;;;;;;;0.10;0.10;;;;;;;;;;4808453;29;20440;-87
2023/09/24 08:22:53;;;;;;;0.20;0.20;;;;;;;;;;4838622;29;20187;-87
2023/09/24 08:25:19;;;;;;;0.20;0.20;;;;;;;;;;4838818;29;20042;-87
2023/09/24 08:27:45;;;;;;;0.20;0.20;;;;;;;;;;4793065;29;20430;-89
2023/09/24 08:30:11;;;;;;;0.38;0.20;;;;;;;;;;4838631;29;20053;-87
2023/09/24 08:32:37;;;;;;;0.10;0.10;;;;;;;;;;4824439;29;20571;-88
2023/09/24 08:35:03;;;;;;;0.20;0.20;;;;;;;;;;4823209;29;20046;-86
2023/09/24 08:37:29;;;;;;;0.20;0.20;;;;;;;;;;4838191;29;20491;-86
2023/09/24 08:39:55;;;;;;;0.20;0.20;;;;;;;;;;4838240;29;20129;-87
2023/09/24 08:42:22;;;;;;;0.10;0.10;;;;;;;;;;4838229;29;20385;-86
2023/09/24 08:44:50;;;;;;;0.10;0.10;;;;;;;;;;4838251;29;20480;-86
2023/09/24 08:47:16;;;;;;;0.13;0.13;;;;;;;;;;4807928;29;20093;-88
2023/09/24 08:49:43;;;;;;;0.32;0.32;;;;;;;;;;4807451;29;20078;-85
2023/09/24 08:52:09;;;;;;;0.20;0.20;;;;;;;;;;4807703;29;20129;-86
2023/09/24 08:54:35;;;;;;;0.10;0.10;;;;;;;;;;4807526;29;20078;-86
2023/09/24 08:57:01;;;;;;;0.20;0.20;;;;;;;;;;4807900;29;20081;-84
2023/09/24 08:59:28;;;;;;;0.20;0.20;;;;;;;;;;4824077;29;20529;-86
2023/09/24 09:01:54;;;;;;;0.10;0.10;;;;;;;;;;4837932;29;20117;-85
2023/09/24 09:04:20;;;;;;;0.10;0.10;;;;;;;;;;4823667;29;20046;-86
2023/09/24 09:06:46;;;;;;;0.20;0.20;;;;;;;;;;4807786;29;20110;-86
2023/09/24 09:09:12;;;;;;;0.10;0.10;;;;;;;;;;4822621;29;20046;-84
2023/09/24 09:11:42;;;;;;;0.20;0.20;;;;;;;;;;4792109;29;20144;-84
2023/09/24 09:14:08;;;;;;;0.25;0.25;;;;;;;;;;4823652;29;20049;-85
2023/09/24 09:16:35;;;;;;;0.20;0.20;;;;;;;;;;4807331;29;20495;-84
2023/09/24 09:19:02;;;;;;;0.20;0.20;;;;;;;;;;4822510;29;20057;-84
2023/09/24 09:21:28;;;;;;;0.10;0.10;;;;;;;;;;4823543;29;20053;-86
2023/09/24 09:23:54;;;;;;;0.20;0.20;;;;;;;;;;4837609;29;20050;-84
2023/09/24 09:26:26;;;;;;;0.20;0.20;;;;;;;;;;4822481;29;20080;-83
2023/09/24 09:28:52;;;;;;;0.10;0.10;;;;;;;;;;4822564;29;20069;-82
2023/09/24 09:31:18;;;;;;;0.10;0.10;;;;;;;;;;4822521;29;20046;-83
2023/09/24 09:33:44;;;;;;;0.10;0.10;;;;;;;;;;4822255;29;20507;-86
2023/09/24 09:36:20;;;;;;;0.20;0.20;;;;;;;;;;4807421;29;20376;-85
2023/09/24 09:38:46;;;;;;;0.20;0.20;;;;;;;;;;4837554;29;20506;-85
2023/09/24 09:41:12;;;;;;;0.10;0.10;;;;;;;;;;4807493;29;20127;-85
2023/09/24 09:43:41;;;;;;;0.10;0.10;;;;;;;;;;4792276;29;20475;-85
2023/09/24 09:46:07;;;;;;;0.20;0.20;;;;;;;;;;4807510;29;20054;-85
2023/09/24 09:48:33;;;;;;;0.10;0.10;;;;;;;;;;4823616;29;20058;-85
2023/09/24 09:51:07;;;;;;;0.20;0.20;;;;;;;;;;4823464;29;20039;-84
2023/09/24 09:53:37;;;;;;;0.20;0.20;;;;;;;;;;4807095;29;20047;-85
2023/09/24 09:56:04;;;;;;;0.20;0.20;;;;;;;;;;4822243;29;20046;-86
2023/09/24 09:58:30;;;;;;;0.20;0.20;;;;;;;;;;4837448;29;20061;-85
2023/09/24 10:00:59;;;;;;;0.10;0.10;;;;;;;;;;4822354;29;20038;-83
2023/09/24 10:03:25;;;;;;;0.20;0.20;;;;;;;;;;4837430;29;20510;-83
2023/09/24 10:05:51;;;;;;;0.20;0.20;;;;;;;;;;4807203;29;20051;-83
2023/09/24 10:08:36;;;;;;;0.20;0.20;;;;;;;;;;4792418;29;20055;-83
2023/09/24 10:11:03;;;;;;;0.22;0.22;;;;;;;;;;4837233;29;20404;-82
2023/09/24 10:13:48;;;;;;;0.20;0.20;;;;;;;;;;4806877;29;20043;-81
2023/09/24 10:16:35;;;;;;;0.20;0.20;;;;;;;;;;4823266;29;20046;-83
2023/09/24 10:19:05;;;;;;;0.20;0.20;;;;;;;;;;4822738;29;20448;-82
2023/09/24 10:21:35;;;;;;;0.20;0.20;;;;;;;;;;4837015;29;20073;-82
2023/09/24 10:24:13;;;;;;;0.20;0.20;;;;;;;;;;4837955;29;20054;-82
2023/09/24 10:26:54;;;;;;;0.20;0.20;;;;;;;;;;4840461;29;20149;-86
2023/09/24 10:29:20;;;;;;;0.20;0.20;;;;;;;;;;4810450;29;20518;-84
2023/09/24 10:32:05;;;;;;;0.20;0.20;;;;;;;;;;4840502;29;20077;-84
2023/09/24 10:34:49;;;;;;;0.10;0.10;;;;;;;;;;4824899;29;20062;-84
2023/09/24 10:37:15;;;;;;;0.20;0.20;;;;;;;;;;4825905;29;20575;-84
2023/09/24 10:42:26;;;;;;;0.28;0.28;;;;;;;;;;4839929;29;20121;-86
2023/09/24 10:45:07;;;;;;;0.20;0.20;;;;;;;;;;4840067;29;20129;-86
2023/09/24 10:47:40;;;;;;;0.20;0.20;;;;;;;;;;4824778;29;20050;-87
2023/09/24 10:50:07;;;;;;;0.20;0.20;;;;;;;;;;4795272;29;20046;-86
2023/09/24 10:52:49;;;;;;;0.10;0.10;;;;;;;;;;4839877;29;20046;-85
2023/09/24 10:55:15;;;;;;;0.10;0.10;;;;;;;;;;4840159;29;20141;-85
2023/09/24 10:57:45;;;;;;;0.20;0.20;;;;;;;;;;4824491;29;20085;-86
2023/09/24 11:00:15;;;;;;;0.20;0.20;;;;;;;;;;4840021;29;20046;-88
2023/09/24 11:02:41;;;;;;;0.10;0.10;;;;;;;;;;4839954;29;20503;-87
2023/09/24 11:05:08;;;;;;;0.20;0.20;;;;;;;;;;4825550;29;20053;-87
2023/09/24 11:07:34;;;;;;;0.15;0.15;;;;;;;;;;4840377;29;20050;-88
2023/09/24 11:09:59;;;;;;;0.20;0.20;;;;;;;;;;4809416;29;20111;-87
2023/09/24 11:12:25;;;;;;;0.40;0.40;;;;;;;;;;4809182;29;20047;-88
2023/09/24 11:14:55;;;;;;;0.20;0.20;;;;;;;;;;4825499;29;20094;-87
2023/09/24 11:17:21;;;;;;;0.10;0.10;;;;;;;;;;4794649;29;20324;-87
2023/09/24 11:19:47;;;;;;;0.10;0.10;;;;;;;;;;4839547;29;20042;-87
2023/09/24 11:22:26;;;;;;;0.30;0.30;;;;;;;;;;4824131;29;20491;-86
2023/09/24 11:25:05;;;;;;;0.20;0.20;;;;;;;;;;4794225;29;20095;-87
2023/09/24 11:27:32;;;;;;;0.20;0.20;;;;;;;;;;4824218;29;20511;-87
2023/09/24 11:29:58;;;;;;;0.20;0.20;;;;;;;;;;4809159;29;20049;-88
2023/09/24 11:32:25;;;;;;;0.10;0.10;;;;;;;;;;4824236;29;20054;-87
2023/09/24 11:34:51;;;;;;;0.10;0.10;;;;;;;;;;4809159;29;20049;-86
2023/09/24 11:37:19;;;;;;;0.10;0.10;;;;;;;;;;4824041;29;20047;-87
2023/09/24 11:39:46;;;;;;;0.20;0.20;;;;;;;;;;4824265;29;20054;-87
2023/09/24 11:42:18;;;;;;;0.20;0.20;;;;;;;;;;4839318;29;20521;-87
2023/09/24 11:44:47;;;;;;;0.20;0.20;;;;;;;;;;4839576;29;20380;-87
2023/09/24 11:47:13;;;;;;;0.20;0.20;;;;;;;;;;4824196;29;20376;-87
2023/09/24 11:49:39;;;;;;;0.20;0.20;;;;;;;;;;4839221;29;20099;-87
2023/09/24 11:52:11;;;;;;;0.20;0.20;;;;;;;;;;4839331;29;20046;-88
2023/09/24 11:54:37;;;;;;;0.10;0.10;;;;;;;;;;4839095;29;20042;-87
2023/09/24 11:57:03;;;;;;;0.20;0.20;;;;;;;;;;4838935;29;20157;-87
2023/09/24 11:59:32;;;;;;;0.13;0.13;;;;;;;;;;4838989;29;20042;-87
2023/09/24 12:01:58;;;;;;;0.20;0.20;;;;;;;;;;4839116;29;20049;-87
2023/09/24 12:04:24;;;;;;;0.20;0.20;;;;;;;;;;4838884;29;20054;-87
2023/09/24 12:06:50;;;;;;;0.10;0.10;;;;;;;;;;4839215;29;20047;-87
2023/09/24 12:09:16;;;;;;;0.20;0.20;;;;;;;;;;4809153;29;20091;-90
2023/09/24 12:11:42;;;;;;;0.20;0.20;;;;;;;;;;4793857;29;20050;-86
2023/09/24 12:14:08;;;;;;;0.20;0.20;;;;;;;;;;4838524;29;20510;-86
2023/09/24 12:16:35;;;;;;;0.10;0.10;;;;;;;;;;4808696;29;20042;-86
2023/09/24 12:19:01;;;;;;;0.10;0.10;;;;;;;;;;4823727;29;20042;-86
2023/09/24 12:21:27;;;;;;;0.10;0.10;;;;;;;;;;4808685;29;20482;-86
2023/09/24 12:23:53;;;;;;;0.10;0.10;;;;;;;;;;4824759;29;20062;-86
2023/09/24 12:26:19;;;;;;;0.20;0.20;;;;;;;;;;4838444;29;20572;-87
2023/09/24 12:28:45;;;;;;;0.20;0.20;;;;;;;;;;4823280;29;20065;-87
2023/09/24 12:31:11;;;;;;;0.10;0.10;;;;;;;;;;4808493;29;20058;-87
2023/09/24 12:33:37;;;;;;;0.20;0.20;;;;;;;;;;4838456;29;20060;-87
2023/09/24 12:36:03;;;;;;;0.10;0.10;;;;;;;;;;4838585;29;20046;-87
2023/09/24 12:38:29;;;;;;;0.10;0.10;;;;;;;;;;4808498;29;20042;-87
2023/09/24 12:40:55;;;;;;;0.10;0.10;;;;;;;;;;4838416;29;20046;-88
2023/09/24 12:43:21;;;;;;;0.10;0.10;;;;;;;;;;4838233;29;20046;-87
2023/09/24 12:45:47;;;;;;;0.10;0.10;;;;;;;;;;4838106;29;20050;-87
2023/09/24 12:48:13;;;;;;;0.10;0.10;;;;;;;;;;4807816;29;20088;-87
2023/09/24 12:50:39;;;;;;;0.10;0.10;;;;;;;;;;4793135;29;20051;-87
2023/09/24 12:53:05;;;;;;;0.43;0.43;;;;;;;;;;4838260;29;20378;-88
2023/09/24 12:55:31;;;;;;;0.10;0.10;;;;;;;;;;4807871;29;20042;-87
2023/09/24 12:57:57;;;;;;;0.10;0.10;;;;;;;;;;4838181;29;20034;-87
2023/09/24 13:00:23;;;;;;;0.10;0.10;;;;;;;;;;4823064;29;20077;-87
2023/09/24 13:02:49;;;;;;;0.10;0.10;;;;;;;;;;4838094;29;20499;-87
2023/09/24 13:05:16;;;;;;;0.20;0.20;;;;;;;;;;4838081;29;20104;-87
2023/09/24 13:07:43;;;;;;;0.20;0.20;;;;;;;;;;4807979;29;20135;-87
2023/09/24 13:10:10;;;;;;;0.20;0.20;;;;;;;;;;4808141;29;20126;-87
2023/09/24 13:12:35;;;;;;;0.10;0.10;;;;;;;;;;4792742;29;20054;-88
2023/09/24 13:15:02;;;;;;;0.10;0.10;;;;;;;;;;4837772;29;20045;-88
2023/09/24 13:17:28;;;;;;;0.10;0.10;;;;;;;;;;4807696;29;20043;-87
2023/09/24 13:19:54;;;;;;;0.10;0.10;;;;;;;;;;4837874;29;20066;-87
2023/09/24 13:22:20;;;;;;;0.20;0.20;;;;;;;;;;4807627;29;20058;-87
2023/09/24 13:24:46;;;;;;;0.17;0.17;;;;;;;;;;4807411;29;20042;-87
2023/09/24 13:27:12;;;;;;;0.10;0.10;;;;;;;;;;4823884;29;20050;-88
2023/09/24 13:29:38;;;;;;;0.10;0.10;;;;;;;;;;4837819;29;20053;-87
2023/09/24 13:32:04;;;;;;;0.20;0.20;;;;;;;;;;4837747;29;20463;-87
2023/09/24 13:34:32;;;;;;;0.20;0.20;;;;;;;;;;4792285;29;20046;-87
2023/09/24 13:36:58;;;;;;;0.20;0.20;;;;;;;;;;4822690;29;20046;-87
2023/09/24 13:39:24;;;;;;;0.20;0.20;;;;;;;;;;4837840;29;20468;-88
2023/09/24 13:41:50;;;;;;;0.20;0.20;;;;;;;;;;4807446;29;20529;-87
2023/09/24 13:44:15;;;;;;;0.10;0.10;;;;;;;;;;4823770;29;20090;-87
2023/09/24 13:46:42;;;;;;;0.20;0.20;;;;;;;;;;4809958;29;20054;-87
2023/09/24 13:49:08;;;;;;;0.17;0.17;;;;;;;;;;4807648;29;20073;-87
2023/09/24 13:51:41;;;;;;;0.10;0.10;;;;;;;;;;4837605;29;20042;-88
2023/09/24 13:54:07;;;;;;;0.10;0.10;;;;;;;;;;4822224;29;20058;-88
2023/09/24 13:56:33;;;;;;;0.10;0.10;;;;;;;;;;4807237;29;20051;-87
2023/09/24 13:58:59;;;;;;;0.10;0.10;;;;;;;;;;4810176;29;20046;-88
2023/09/24 14:01:25;;;;;;;0.10;0.10;;;;;;;;;;4841204;29;20056;-87
2023/09/24 14:03:52;;;;;;;0.10;0.10;;;;;;;;;;4841148;29;20053;-88
2023/09/24 14:06:20;;;;;;;0.10;0.10;;;;;;;;;;4795913;29;20456;-87
2023/09/24 14:14:15;;;;;;;0.10;0.10;;;;;;;;;;4840994;29;20050;-87
2023/09/24 14:16:41;;;;;;;0.10;0.10;;;;;;;;;;4825678;29;20046;-87
2023/09/24 14:19:13;;;;;;;0.20;0.20;;;;;;;;;;4810710;29;20440;-87
2023/09/24 14:21:41;;;;;;;0.10;0.10;;;;;;;;;;4810485;29;20054;-86
2023/09/24 14:24:07;;;;;;;0.10;0.10;;;;;;;;;;4795236;29;20103;-86
2023/09/24 14:26:33;;;;;;;0.10;0.10;;;;;;;;;;4840344;29;20058;-87
2023/09/24 14:28:59;;;;;;;0.10;0.10;;;;;;;;;;4825060;29;20061;-87
2023/09/24 14:31:25;;;;;;;0.10;0.10;;;;;;;;;;4824978;29;20526;-87
2023/09/24 14:33:52;;;;;;;0.10;0.10;;;;;;;;;;4840376;29;20065;-86
2023/09/24 14:36:18;;;;;;;0.10;0.10;;;;;;;;;;4810267;29;20134;-88
2023/09/24 14:38:44;;;;;;;0.17;0.17;;;;;;;;;;4840725;29;20376;-86
2023/09/24 14:41:11;;;;;;;0.20;0.20;;;;;;;;;;4810107;29;20049;-87
2023/09/24 14:43:37;;;;;;;0.20;0.20;;;;;;;;;;4840332;29;20050;-86
2023/09/24 14:46:03;;;;;;;0.10;0.10;;;;;;;;;;4840074;29;20050;-85
2023/09/24 14:48:30;;;;;;;0.10;0.10;;;;;;;;;;4840349;29;20046;-87
2023/09/24 14:50:57;;;;;;;0.10;0.10;;;;;;;;;;4825055;29;20053;-88